Time;durP1;ratioP1;P1;durP2;ratioP2;P2;SDS_P1;SDS_P2;PMS_P1;PMS_P2;Temp;Humidity;BMP_temperature;BMP_pressure;BME280_temperature;BME280_humidity;BME280_pressure;Samples;Min_cycle;Max_cycle;Signal;HPM_P1;HPM_P2
2022/08/12 00:44:37;;;;;;;;;;;;;;;;;;4937434;28;19922;-83
2022/08/12 00:47:02;;;;;;;;;;;;;;;;;;4937074;28;19919;-83
2022/08/12 00:49:27;;;;;;;;;;;;;;;;;;4940861;28;19970;-84
2022/08/12 00:52:05;;;;;;;;;;;;;;;;;;4936646;28;20304;-83
2022/08/12 00:54:30;;;;;;;;;;;;;;;;;;4936590;28;19923;-84
2022/08/12 00:56:55;;;;;;;;;;;;;;;;;;4935596;28;19930;-83
2022/08/12 00:59:20;;;;;;;;;;;;;;;;;;4941370;28;20250;-84
2022/08/12 01:01:45;;;;;;;;;;;;;;;;;;4938913;28;20419;-83
2022/08/12 01:12:22;;;;;;;;;;;;;;;;;;4941001;29;19969;-84
2022/08/12 01:14:47;;;;;;;;;;;;;;;;;;4936267;29;19923;-84
2022/08/12 01:17:12;;;;;;;;;;;;;;;;;;4943467;28;19946;-84
2022/08/12 01:19:38;;;;;;;;;;;;;;;;;;4942370;28;20329;-83
2022/08/12 01:22:03;;;;;;;;;;;;;;;;;;4940981;28;19922;-84
2022/08/12 01:24:28;;;;;;;;;;;;;;;;;;4937907;28;19915;-83
2022/08/12 01:26:53;;;;;;;;;;;;;;;;;;4939600;28;19925;-83
2022/08/12 01:29:19;;;;;;;;;;;;;;;;;;4927914;29;19922;-83
2022/08/12 01:31:44;;;;;;;;;;;;;;;;;;4925858;28;19958;-83
2022/08/12 01:34:09;;;;;;;;;;;;;;;;;;4929698;28;19949;-83
2022/08/12 01:36:35;;;;;;;;;;;;;;;;;;4929836;28;20317;-83
2022/08/12 01:39:00;;;;;;;;;;;;;;;;;;4930142;28;19918;-83
2022/08/12 01:41:25;;;;;;;;;;;;;;;;;;4930845;28;19961;-83
2022/08/12 01:43:51;;;;;;;;;;;;;;;;;;4936240;28;19977;-83
2022/08/12 01:46:16;;;;;;;;;;;;;;;;;;4934056;28;19922;-83
2022/08/12 01:48:41;;;;;;;;;;;;;;;;;;4943401;28;21355;-83
2022/08/12 01:51:06;;;;;;;;;;;;;;;;;;4948146;28;20377;-83
2022/08/12 01:53:31;;;;;;;;;;;;;;;;;;4937504;28;19926;-83
2022/08/12 01:55:57;;;;;;;;;;;;;;;;;;4945714;28;20190;-84
2022/08/12 01:58:23;;;;;;;;;;;;;;;;;;4941356;28;19929;-83
2022/08/12 02:00:50;;;;;;;;;;;;;;;;;;4944327;29;20340;-83
2022/08/12 02:03:16;;;;;;;;;;;;;;;;;;4947301;29;19921;-83
2022/08/12 02:11:18;;;;;;;;;;;;;;;;;;4945075;28;19921;-83
2022/08/12 02:13:43;;;;;;;;;;;;;;;;;;4939858;28;20385;-83
2022/08/12 02:16:10;;;;;;;;;;;;;;;;;;4942199;28;19914;-83
2022/08/12 02:18:35;;;;;;;;;;;;;;;;;;4938665;28;20033;-84
2022/08/12 02:21:01;;;;;;;;;;;;;;;;;;4941766;28;20013;-83
2022/08/12 02:23:26;;;;;;;;;;;;;;;;;;4938042;28;20499;-83
2022/08/12 02:25:54;;;;;;;;;;;;;;;;;;4941262;28;20166;-83
2022/08/12 02:28:19;;;;;;;;;;;;;;;;;;4937433;28;19914;-83
2022/08/12 02:30:44;;;;;;;;;;;;;;;;;;4940338;28;19937;-83
2022/08/12 02:33:09;;;;;;;;;;;;;;;;;;4939107;29;20029;-83
2022/08/12 02:35:35;;;;;;;;;;;;;;;;;;4940547;28;19946;-83
2022/08/12 02:38:00;;;;;;;;;;;;;;;;;;4940834;28;19918;-83
2022/08/12 02:40:25;;;;;;;;;;;;;;;;;;4940632;28;19919;-83
2022/08/12 02:42:50;;;;;;;;;;;;;;;;;;4938009;28;19933;-83
2022/08/12 02:45:15;;;;;;;;;;;;;;;;;;4941231;28;19914;-83
2022/08/12 02:47:41;;;;;;;;;;;;;;;;;;4943414;28;19923;-83
2022/08/12 02:50:06;;;;;;;;;;;;;;;;;;4941587;28;19914;-83
2022/08/12 02:52:32;;;;;;;;;;;;;;;;;;4934197;28;19918;-83
2022/08/12 02:54:58;;;;;;;;;;;;;;;;;;4943352;28;20312;-83
2022/08/12 02:57:24;;;;;;;;;;;;;;;;;;4942421;29;19926;-83
2022/08/12 02:59:49;;;;;;;;;;;;;;;;;;4940769;28;19918;-83
2022/08/12 03:02:14;;;;;;;;;;;;;;;;;;4936890;28;19926;-83
2022/08/12 03:04:39;;;;;;;;;;;;;;;;;;4938750;28;19989;-83
2022/08/12 03:07:05;;;;;;;;;;;;;;;;;;4939648;28;20054;-83
2022/08/12 03:09:31;;;;;;;;;;;;;;;;;;4945975;28;20411;-83
2022/08/12 03:11:57;;;;;;;;;;;;;;;;;;4946532;28;20006;-83
2022/08/12 03:14:23;;;;;;;;;;;;;;;;;;4947297;28;20385;-83
2022/08/12 03:16:49;;;;;;;;;;;;;;;;;;4944596;28;19922;-83
2022/08/12 03:19:14;;;;;;;;;;;;;;;;;;4945973;28;19922;-83
2022/08/12 03:21:39;;;;;;;;;;;;;;;;;;4937121;28;19994;-83
2022/08/12 03:24:04;;;;;;;;;;;;;;;;;;4939191;28;20447;-83
2022/08/12 03:26:29;;;;;;;;;;;;;;;;;;4941464;28;20002;-83
2022/08/12 03:28:56;;;;;;;;;;;;;;;;;;4941392;28;19938;-82
2022/08/12 03:31:21;;;;;;;;;;;;;;;;;;4940952;29;19945;-82
2022/08/12 03:33:46;;;;;;;;;;;;;;;;;;4944178;28;19935;-82
2022/08/12 03:36:13;;;;;;;;;;;;;;;;;;4942595;28;19915;-82
2022/08/12 03:38:42;;;;;;;;;;;;;;;;;;4940788;28;19916;-82
2022/08/12 04:00:18;;;;;;;;;;;;;;;;;;4944978;28;20001;-84
2022/08/12 04:02:44;;;;;;;;;;;;;;;;;;4948786;28;19910;-84
2022/08/12 04:05:09;;;;;;;;;;;;;;;;;;4948874;28;19922;-83
2022/08/12 04:07:34;;;;;;;;;;;;;;;;;;4951121;28;19918;-84
2022/08/12 04:10:00;;;;;;;;;;;;;;;;;;4950989;28;20142;-84
2022/08/12 04:15:11;;;;;;;;;;;;;;;;;;4940938;29;19921;-84
2022/08/12 04:17:38;;;;;;;;;;;;;;;;;;4948125;29;19915;-84
2022/08/12 04:20:04;;;;;;;;;;;;;;;;;;4945403;28;20005;-84
2022/08/12 04:22:29;;;;;;;;;;;;;;;;;;4948523;28;20077;-84
2022/08/12 04:24:54;;;;;;;;;;;;;;;;;;4949981;28;20375;-84
2022/08/12 04:27:19;;;;;;;;;;;;;;;;;;4947393;28;20140;-85
2022/08/12 04:29:45;;;;;;;;;;;;;;;;;;4949243;28;19914;-84
2022/08/12 04:32:11;;;;;;;;;;;;;;;;;;4950861;28;19922;-84
2022/08/12 04:34:37;;;;;;;;;;;;;;;;;;4950499;28;19965;-84
2022/08/12 04:37:02;;;;;;;;;;;;;;;;;;4949037;28;19998;-84
2022/08/12 04:39:27;;;;;;;;;;;;;;;;;;4964298;28;20065;-84
2022/08/12 04:41:52;;;;;;;;;;;;;;;;;;4950828;28;19921;-83
2022/08/12 04:44:18;;;;;;;;;;;;;;;;;;4948324;28;19916;-83
2022/08/12 04:46:43;;;;;;;;;;;;;;;;;;4946367;28;19914;-84
2022/08/12 04:49:08;;;;;;;;;;;;;;;;;;4948143;29;20002;-84
2022/08/12 04:51:33;;;;;;;;;;;;;;;;;;4950476;28;19915;-84
2022/08/12 04:54:00;;;;;;;;;;;;;;;;;;4950157;28;19914;-84
2022/08/12 04:56:27;;;;;;;;;;;;;;;;;;4947921;28;19926;-83
2022/08/12 04:58:52;;;;;;;;;;;;;;;;;;4951907;28;19918;-84
2022/08/12 05:01:18;;;;;;;;;;;;;;;;;;4953567;28;19969;-85
2022/08/12 05:03:44;;;;;;;;;;;;;;;;;;4952857;28;19914;-83
2022/08/12 05:06:09;;;;;;;;;;;;;;;;;;4951629;28;20288;-84
2022/08/12 05:08:35;;;;;;;;;;;;;;;;;;4953690;28;20165;-83
2022/08/12 05:11:00;;;;;;;;;;;;;;;;;;4949803;28;19921;-84
2022/08/12 05:13:26;;;;;;;;;;;;;;;;;;4950720;28;19934;-84
2022/08/12 05:15:51;;;;;;;;;;;;;;;;;;4965320;28;20044;-84
2022/08/12 05:18:16;;;;;;;;;;;;;;;;;;4960138;28;19921;-84
2022/08/12 05:20:44;;;;;;;;;;;;;;;;;;4952170;28;20147;-84
2022/08/12 05:23:09;;;;;;;;;;;;;;;;;;4953888;28;19961;-83
2022/08/12 05:25:34;;;;;;;;;;;;;;;;;;4951743;28;20013;-83
2022/08/12 05:27:59;;;;;;;;;;;;;;;;;;4951211;28;20277;-84
2022/08/12 05:30:24;;;;;;;;;;;;;;;;;;4950926;28;19922;-83
2022/08/12 05:32:50;;;;;;;;;;;;;;;;;;4951313;28;19926;-84
2022/08/12 05:35:15;;;;;;;;;;;;;;;;;;4952865;28;20028;-83
2022/08/12 05:37:40;;;;;;;;;;;;;;;;;;4952715;28;19930;-84
2022/08/12 05:40:05;;;;;;;;;;;;;;;;;;4954354;28;19921;-84
2022/08/12 05:42:31;;;;;;;;;;;;;;;;;;4953977;28;19997;-84
2022/08/12 05:44:56;;;;;;;;;;;;;;;;;;4951313;28;20369;-84
2022/08/12 05:47:22;;;;;;;;;;;;;;;;;;4951882;28;20046;-84
2022/08/12 05:49:47;;;;;;;;;;;;;;;;;;4952360;28;19922;-84
2022/08/12 05:52:12;;;;;;;;;;;;;;;;;;4953852;28;19914;-84
2022/08/12 05:54:42;;;;;;;;;;;;;;;;;;4949965;28;19957;-84
2022/08/12 05:57:08;;;;;;;;;;;;;;;;;;4950888;28;20401;-84
2022/08/12 05:59:33;;;;;;;;;;;;;;;;;;4950933;28;19940;-84
2022/08/12 06:02:04;;;;;;;;;;;;;;;;;;4952856;28;19919;-84
2022/08/12 06:04:29;;;;;;;;;;;;;;;;;;4952528;28;19911;-85
2022/08/12 06:06:54;;;;;;;;;;;;;;;;;;4951465;28;19921;-84
2022/08/12 06:09:21;;;;;;;;;;;;;;;;;;4953086;28;19964;-84
2022/08/12 06:11:47;;;;;;;;;;;;;;;;;;4951518;28;19946;-84
2022/08/12 06:14:12;;;;;;;;;;;;;;;;;;4957594;28;19957;-84
2022/08/12 06:16:37;;;;;;;;;;;;;;;;;;4957992;28;20400;-84
2022/08/12 06:19:02;;;;;;;;;;;;;;;;;;4956221;28;19921;-84
2022/08/12 06:21:29;;;;;;;;;;;;;;;;;;4958174;28;19910;-84
2022/08/12 06:23:55;;;;;;;;;;;;;;;;;;4947511;28;19922;-84
2022/08/12 06:26:20;;;;;;;;;;;;;;;;;;4955990;28;19921;-84
2022/08/12 06:28:47;;;;;;;;;;;;;;;;;;4948567;28;19915;-85
2022/08/12 06:31:15;;;;;;;;;;;;;;;;;;4946878;28;19976;-84
2022/08/12 06:33:43;;;;;;;;;;;;;;;;;;4950444;28;19961;-85
2022/08/12 06:36:08;;;;;;;;;;;;;;;;;;4950063;28;19961;-84
2022/08/12 06:38:33;;;;;;;;;;;;;;;;;;4948538;28;19950;-85
2022/08/12 06:43:42;;;;;;;;;;;;;;;;;;4948189;28;20071;-85
2022/08/12 06:46:08;;;;;;;;;;;;;;;;;;4950896;28;19980;-85
2022/08/12 06:48:33;;;;;;;;;;;;;;;;;;4950177;28;20376;-85
2022/08/12 06:50:58;;;;;;;;;;;;;;;;;;4971195;28;19915;-85
2022/08/12 06:53:24;;;;;;;;;;;;;;;;;;4947860;28;19945;-85
2022/08/12 06:55:49;;;;;;;;;;;;;;;;;;4950954;28;19923;-85
2022/08/12 06:58:15;;;;;;;;;;;;;;;;;;4954586;28;19965;-85
2022/08/12 07:00:42;;;;;;;;;;;;;;;;;;4951850;28;20338;-86
2022/08/12 07:03:07;;;;;;;;;;;;;;;;;;4953886;28;19983;-85
2022/08/12 07:05:32;;;;;;;;;;;;;;;;;;4956883;28;19918;-85
2022/08/12 07:07:57;;;;;;;;;;;;;;;;;;4952571;28;19915;-85
2022/08/12 07:10:23;;;;;;;;;;;;;;;;;;4950108;28;19921;-85
2022/08/12 07:12:53;;;;;;;;;;;;;;;;;;4948965;28;19973;-86
2022/08/12 07:15:19;;;;;;;;;;;;;;;;;;4949618;28;19926;-85
2022/08/12 07:17:44;;;;;;;;;;;;;;;;;;4953228;28;19918;-86
2022/08/12 07:20:10;;;;;;;;;;;;;;;;;;4954014;28;20380;-86
2022/08/12 07:22:35;;;;;;;;;;;;;;;;;;4948337;28;19921;-86
2022/08/12 07:27:45;;;;;;;;;;;;;;;;;;4947995;28;19921;-85
2022/08/12 07:30:10;;;;;;;;;;;;;;;;;;4953312;28;19911;-85
2022/08/12 07:32:35;;;;;;;;;;;;;;;;;;4951503;28;20618;-85
2022/08/12 07:35:02;;;;;;;;;;;;;;;;;;4947019;28;19965;-86
2022/08/12 07:37:28;;;;;;;;;;;;;;;;;;4947263;28;19918;-85
2022/08/12 07:39:58;;;;;;;;;;;;;;;;;;4948662;28;20408;-85
2022/08/12 07:42:24;;;;;;;;;;;;;;;;;;4946111;28;20444;-85
2022/08/12 07:44:50;;;;;;;;;;;;;;;;;;4940432;28;19944;-85
2022/08/12 07:47:16;;;;;;;;;;;;;;;;;;4943849;28;19924;-86
2022/08/12 07:49:42;;;;;;;;;;;;;;;;;;4941224;28;20258;-85
2022/08/12 07:52:07;;;;;;;;;;;;;;;;;;4946724;28;20614;-84
2022/08/12 07:54:43;;;;;;;;;;;;;;;;;;4949370;28;19930;-85
2022/08/12 07:57:12;;;;;;;;;;;;;;;;;;4948815;28;19985;-85
2022/08/12 07:59:38;;;;;;;;;;;;;;;;;;4942434;28;20385;-85
2022/08/12 08:02:04;;;;;;;;;;;;;;;;;;4939908;28;20420;-83
2022/08/12 08:07:15;;;;;;;;;;;;;;;;;;4939720;28;19926;-83
2022/08/12 08:09:43;;;;;;;;;;;;;;;;;;4941203;28;20389;-83
2022/08/12 08:14:54;;;;;;;;;;;;;;;;;;4934834;28;20411;-84
2022/08/12 08:17:19;;;;;;;;;;;;;;;;;;4937494;29;20035;-84
2022/08/12 08:19:51;;;;;;;;;;;;;;;;;;4942478;28;19960;-83
2022/08/12 08:22:17;;;;;;;;;;;;;;;;;;4939280;28;19922;-84
2022/08/12 08:24:42;;;;;;;;;;;;;;;;;;4942922;28;19923;-84
2022/08/12 08:27:08;;;;;;;;;;;;;;;;;;4940128;29;19925;-84
2022/08/12 08:29:34;;;;;;;;;;;;;;;;;;4934916;28;20678;-84
2022/08/12 08:32:00;;;;;;;;;;;;;;;;;;4923460;28;19918;-84
2022/08/12 08:34:25;;;;;;;;;;;;;;;;;;4935378;28;19968;-85
2022/08/12 08:36:50;;;;;;;;;;;;;;;;;;4952212;28;19922;-83
2022/08/12 08:39:16;;;;;;;;;;;;;;;;;;4945852;28;20473;-84
2022/08/12 08:44:25;;;;;;;;;;;;;;;;;;4934070;28;19925;-84
2022/08/12 08:46:50;;;;;;;;;;;;;;;;;;4932843;28;20759;-85
2022/08/12 08:49:15;;;;;;;;;;;;;;;;;;4933567;28;20589;-84
2022/08/12 08:51:41;;;;;;;;;;;;;;;;;;4933137;28;20415;-84
2022/08/12 08:54:07;;;;;;;;;;;;;;;;;;4933233;28;19926;-84
2022/08/12 08:56:32;;;;;;;;;;;;;;;;;;4930769;28;20048;-83
2022/08/12 08:58:57;;;;;;;;;;;;;;;;;;4935734;28;19935;-85
2022/08/12 09:01:23;;;;;;;;;;;;;;;;;;4947478;28;19925;-85
2022/08/12 09:03:48;;;;;;;;;;;;;;;;;;4943064;28;20017;-86
2022/08/12 09:06:14;;;;;;;;;;;;;;;;;;4944266;28;19925;-87
2022/08/12 09:08:39;;;;;;;;;;;;;;;;;;4942432;28;19922;-85
2022/08/12 09:13:26;;;;;;;;;;;;;;;;;;4943872;28;19978;-85
2022/08/12 09:13:52;;;;;;;;;;;;;;;;;;4940077;28;19922;-84
2022/08/12 09:16:17;;;;;;;;;;;;;;;;;;4943725;28;19926;-86
2022/08/12 09:18:43;;;;;;;;;;;;;;;;;;4948946;28;19919;-87
2022/08/12 09:21:08;;;;;;;;;;;;;;;;;;4945615;28;20436;-87
2022/08/12 09:23:33;;;;;;;;;;;;;;;;;;4947245;28;19926;-86
2022/08/12 09:26:01;;;;;;;;;;;;;;;;;;4945706;28;19915;-88
2022/08/12 09:28:27;;;;;;;;;;;;;;;;;;4945465;28;20389;-86
2022/08/12 09:30:53;;;;;;;;;;;;;;;;;;4944089;28;19966;-85
2022/08/12 09:33:19;;;;;;;;;;;;;;;;;;4943387;28;19922;-85
2022/08/12 09:35:45;;;;;;;;;;;;;;;;;;4947619;28;20005;-86
2022/08/12 09:38:14;;;;;;;;;;;;;;;;;;4944401;28;19942;-87
2022/08/12 09:40:39;;;;;;;;;;;;;;;;;;4947155;28;19969;-87
2022/08/12 09:45:48;;;;;;;;;;;;;;;;;;4948619;28;19922;-86
2022/08/12 09:48:18;;;;;;;;;;;;;;;;;;4945735;28;19915;-87
2022/08/12 09:50:44;;;;;;;;;;;;;;;;;;4950624;28;19935;-86
2022/08/12 09:53:09;;;;;;;;;;;;;;;;;;4949738;28;20300;-85
2022/08/12 09:55:34;;;;;;;;;;;;;;;;;;4954416;28;20005;-87
2022/08/12 09:57:59;;;;;;;;;;;;;;;;;;4956480;28;19922;-88
2022/08/12 10:00:26;;;;;;;;;;;;;;;;;;4957400;28;20162;-85
2022/08/12 10:02:51;;;;;;;;;;;;;;;;;;4959260;28;20452;-89
2022/08/12 10:05:16;;;;;;;;;;;;;;;;;;4960601;28;19997;-88
2022/08/12 10:07:41;;;;;;;;;;;;;;;;;;4959180;28;19930;-86
2022/08/12 10:10:06;;;;;;;;;;;;;;;;;;4956957;28;19919;-86
2022/08/12 10:15:16;;;;;;;;;;;;;;;;;;4951852;28;19925;-86
2022/08/12 10:17:41;;;;;;;;;;;;;;;;;;4952298;28;19919;-85
2022/08/12 10:20:07;;;;;;;;;;;;;;;;;;4949838;28;19918;-85
2022/08/12 10:22:33;;;;;;;;;;;;;;;;;;4948359;28;19923;-89
2022/08/12 10:30:26;;;;;;;;;;;;;;;;;;4943169;28;19921;-88
2022/08/12 10:32:52;;;;;;;;;;;;;;;;;;4951174;28;19915;-87
2022/08/12 10:35:17;;;;;;;;;;;;;;;;;;4948079;28;19914;-89
2022/08/12 10:37:44;;;;;;;;;;;;;;;;;;4948982;28;20448;-85
2022/08/12 10:40:10;;;;;;;;;;;;;;;;;;4952902;28;20192;-87
2022/08/12 10:45:19;;;;;;;;;;;;;;;;;;4945366;29;19965;-88
2022/08/12 10:47:48;;;;;;;;;;;;;;;;;;4947991;28;19946;-88
2022/08/12 10:50:13;;;;;;;;;;;;;;;;;;4950970;28;20321;-85
2022/08/12 10:52:40;;;;;;;;;;;;;;;;;;4953218;28;19915;-86
2022/08/12 10:55:05;;;;;;;;;;;;;;;;;;4953058;28;19926;-89
2022/08/12 10:57:30;;;;;;;;;;;;;;;;;;4949167;28;19922;-86
2022/08/12 10:59:59;;;;;;;;;;;;;;;;;;4950533;28;19914;-87
2022/08/12 11:02:26;;;;;;;;;;;;;;;;;;4964584;28;19968;-88
2022/08/12 11:04:51;;;;;;;;;;;;;;;;;;4951084;28;20300;-89
2022/08/12 11:07:16;;;;;;;;;;;;;;;;;;4943463;28;20191;-86
2022/08/12 11:09:41;;;;;;;;;;;;;;;;;;4956297;28;19917;-87
2022/08/12 11:12:06;;;;;;;;;;;;;;;;;;4952453;28;19915;-87
2022/08/12 11:14:32;;;;;;;;;;;;;;;;;;4946997;28;19922;-87
2022/08/12 11:16:57;;;;;;;;;;;;;;;;;;4939036;28;19925;-87
2022/08/12 11:19:22;;;;;;;;;;;;;;;;;;4947110;28;19915;-89
2022/08/12 11:21:48;;;;;;;;;;;;;;;;;;4939890;29;19910;-88
2022/08/12 11:24:13;;;;;;;;;;;;;;;;;;4947281;29;20381;-87
2022/08/12 11:26:38;;;;;;;;;;;;;;;;;;4949355;29;19920;-86
2022/08/12 11:29:03;;;;;;;;;;;;;;;;;;4957186;28;19941;-86
2022/08/12 11:31:28;;;;;;;;;;;;;;;;;;4950943;28;19915;-87
2022/08/12 11:33:54;;;;;;;;;;;;;;;;;;4952980;28;19943;-86
2022/08/12 11:36:19;;;;;;;;;;;;;;;;;;4950086;28;19986;-89
2022/08/12 11:38:44;;;;;;;;;;;;;;;;;;4949781;28;20270;-86
2022/08/12 11:41:10;;;;;;;;;;;;;;;;;;4952344;28;19958;-88
2022/08/12 11:43:35;;;;;;;;;;;;;;;;;;4951424;28;19924;-86
2022/08/12 11:46:00;;;;;;;;;;;;;;;;;;4948131;28;19993;-87
2022/08/12 11:48:25;;;;;;;;;;;;;;;;;;4950223;28;19915;-86
2022/08/12 11:50:50;;;;;;;;;;;;;;;;;;4946492;28;19950;-86
2022/08/12 11:53:16;;;;;;;;;;;;;;;;;;4950380;28;20300;-88
2022/08/12 11:55:41;;;;;;;;;;;;;;;;;;4950932;28;19930;-89
2022/08/12 11:58:06;;;;;;;;;;;;;;;;;;4951389;28;19926;-89
2022/08/12 12:00:31;;;;;;;;;;;;;;;;;;4946773;28;20364;-87
2022/08/12 12:02:56;;;;;;;;;;;;;;;;;;4938790;28;20034;-88
2022/08/12 12:05:21;;;;;;;;;;;;;;;;;;4957732;28;20396;-88
2022/08/12 12:07:47;;;;;;;;;;;;;;;;;;4937610;28;19925;-88
2022/08/12 12:10:12;;;;;;;;;;;;;;;;;;4946225;28;20273;-87
2022/08/12 12:12:37;;;;;;;;;;;;;;;;;;4949213;28;20353;-86
2022/08/12 12:15:04;;;;;;;;;;;;;;;;;;4960438;28;20381;-86
2022/08/12 12:17:29;;;;;;;;;;;;;;;;;;4937958;28;20341;-87
2022/08/12 12:19:54;;;;;;;;;;;;;;;;;;4945546;28;19965;-87
2022/08/12 12:22:20;;;;;;;;;;;;;;;;;;4945018;28;19973;-87
2022/08/12 12:24:47;;;;;;;;;;;;;;;;;;4938373;28;20278;-86
2022/08/12 12:27:12;;;;;;;;;;;;;;;;;;4937371;28;19923;-85
2022/08/12 12:29:37;;;;;;;;;;;;;;;;;;4941332;28;19914;-86
2022/08/12 12:32:02;;;;;;;;;;;;;;;;;;4940350;28;20368;-86
2022/08/12 12:34:28;;;;;;;;;;;;;;;;;;4936693;28;20231;-86
2022/08/12 12:36:53;;;;;;;;;;;;;;;;;;4939393;28;19926;-86
2022/08/12 12:39:18;;;;;;;;;;;;;;;;;;4942792;28;19919;-87
2022/08/12 12:41:43;;;;;;;;;;;;;;;;;;4938807;28;19966;-87
2022/08/12 12:44:08;;;;;;;;;;;;;;;;;;4944672;28;20305;-86
2022/08/12 12:46:33;;;;;;;;;;;;;;;;;;4943260;29;19965;-86
2022/08/12 12:48:59;;;;;;;;;;;;;;;;;;4948590;28;20003;-86
2022/08/12 12:51:24;;;;;;;;;;;;;;;;;;4937448;28;19919;-86
2022/08/12 12:53:49;;;;;;;;;;;;;;;;;;4938147;28;20045;-87
2022/08/12 12:56:14;;;;;;;;;;;;;;;;;;4943211;28;20025;-88
2022/08/12 12:58:42;;;;;;;;;;;;;;;;;;4937230;28;19919;-88
2022/08/12 13:01:07;;;;;;;;;;;;;;;;;;4939064;28;20232;-88
2022/08/12 13:03:34;;;;;;;;;;;;;;;;;;4939002;28;19922;-88
2022/08/12 13:05:59;;;;;;;;;;;;;;;;;;4943911;28;19918;-87
2022/08/12 13:08:24;;;;;;;;;;;;;;;;;;4950425;28;19976;-86
2022/08/12 13:10:49;;;;;;;;;;;;;;;;;;4950615;28;19916;-88
2022/08/12 13:13:16;;;;;;;;;;;;;;;;;;4942603;29;19933;-88
2022/08/12 13:15:41;;;;;;;;;;;;;;;;;;4945369;28;19997;-88
2022/08/12 13:18:06;;;;;;;;;;;;;;;;;;4936696;28;20345;-88
2022/08/12 13:20:31;;;;;;;;;;;;;;;;;;4940485;28;19973;-87
2022/08/12 13:22:56;;;;;;;;;;;;;;;;;;4946301;28;20133;-86
2022/08/12 13:25:23;;;;;;;;;;;;;;;;;;4946615;28;19915;-87
2022/08/12 13:27:48;;;;;;;;;;;;;;;;;;4941666;28;20017;-90
2022/08/12 13:30:14;;;;;;;;;;;;;;;;;;4944338;28;20069;-86
2022/08/12 13:32:39;;;;;;;;;;;;;;;;;;4961076;28;19911;-87
2022/08/12 13:35:05;;;;;;;;;;;;;;;;;;4943347;28;19918;-88
2022/08/12 13:37:30;;;;;;;;;;;;;;;;;;4956207;28;19942;-88
2022/08/12 13:39:55;;;;;;;;;;;;;;;;;;4949455;28;19918;-88
2022/08/12 13:42:21;;;;;;;;;;;;;;;;;;4951282;29;19918;-88
2022/08/12 13:44:49;;;;;;;;;;;;;;;;;;4956535;28;19910;-85
2022/08/12 13:47:14;;;;;;;;;;;;;;;;;;4945620;28;19945;-87
2022/08/12 13:49:40;;;;;;;;;;;;;;;;;;4951244;28;19911;-88
2022/08/12 13:52:05;;;;;;;;;;;;;;;;;;4947445;28;20046;-87
2022/08/12 13:54:31;;;;;;;;;;;;;;;;;;4948677;28;19918;-87
2022/08/12 13:56:56;;;;;;;;;;;;;;;;;;4948370;28;19929;-88
2022/08/12 13:59:22;;;;;;;;;;;;;;;;;;4942964;28;20294;-87
2022/08/12 14:01:50;;;;;;;;;;;;;;;;;;4945925;29;20381;-86
2022/08/12 14:04:15;;;;;;;;;;;;;;;;;;4949176;28;20392;-86
2022/08/12 14:06:40;;;;;;;;;;;;;;;;;;4945679;28;19926;-87
2022/08/12 14:09:05;;;;;;;;;;;;;;;;;;4939849;28;20148;-88
2022/08/12 14:11:30;;;;;;;;;;;;;;;;;;4947235;28;20016;-86
2022/08/12 14:13:58;;;;;;;;;;;;;;;;;;4951542;28;20403;-86
2022/08/12 14:16:23;;;;;;;;;;;;;;;;;;4944829;28;20369;-88
2022/08/12 14:18:48;;;;;;;;;;;;;;;;;;4942581;28;19914;-86
2022/08/12 14:21:15;;;;;;;;;;;;;;;;;;4951582;28;20005;-86
2022/08/12 14:23:41;;;;;;;;;;;;;;;;;;4953559;28;20266;-88
2022/08/12 14:26:06;;;;;;;;;;;;;;;;;;4947437;28;19922;-88
2022/08/12 14:28:32;;;;;;;;;;;;;;;;;;4941072;29;19925;-86
2022/08/12 14:30:59;;;;;;;;;;;;;;;;;;4948099;28;19973;-88
2022/08/12 14:33:24;;;;;;;;;;;;;;;;;;4950330;28;19937;-86
2022/08/12 14:35:49;;;;;;;;;;;;;;;;;;4949303;28;20428;-85
2022/08/12 14:38:15;;;;;;;;;;;;;;;;;;4938256;28;19919;-88
2022/08/12 14:40:40;;;;;;;;;;;;;;;;;;4949468;28;19945;-86
2022/08/12 14:43:05;;;;;;;;;;;;;;;;;;4945772;29;19962;-87
2022/08/12 14:45:30;;;;;;;;;;;;;;;;;;4949105;28;20005;-86
2022/08/12 14:47:56;;;;;;;;;;;;;;;;;;4946912;28;19938;-86
2022/08/12 14:50:21;;;;;;;;;;;;;;;;;;4949322;28;19925;-86
2022/08/12 14:52:49;;;;;;;;;;;;;;;;;;4942630;28;20318;-89
2022/08/12 14:55:14;;;;;;;;;;;;;;;;;;4940460;28;20424;-87
2022/08/12 14:57:42;;;;;;;;;;;;;;;;;;4946622;28;19920;-89
2022/08/12 15:02:53;;;;;;;;;;;;;;;;;;4937272;28;19934;-86
2022/08/12 15:05:18;;;;;;;;;;;;;;;;;;4937673;28;19919;-85
2022/08/12 15:07:43;;;;;;;;;;;;;;;;;;4938355;28;19929;-89
2022/08/12 15:10:08;;;;;;;;;;;;;;;;;;4939234;28;19925;-89
2022/08/12 15:12:33;;;;;;;;;;;;;;;;;;4947502;29;20354;-87
2022/08/12 15:14:59;;;;;;;;;;;;;;;;;;4945974;28;19923;-87
2022/08/12 15:17:25;;;;;;;;;;;;;;;;;;4962030;28;19973;-90
2022/08/12 15:19:51;;;;;;;;;;;;;;;;;;4948689;28;19957;-88
2022/08/12 15:22:16;;;;;;;;;;;;;;;;;;4944451;28;20364;-86
2022/08/12 15:24:41;;;;;;;;;;;;;;;;;;4944326;28;19977;-89
2022/08/12 15:27:07;;;;;;;;;;;;;;;;;;4937255;28;20235;-89
2022/08/12 15:29:32;;;;;;;;;;;;;;;;;;4942726;28;20407;-90
2022/08/12 15:31:59;;;;;;;;;;;;;;;;;;4941374;28;20014;-87
2022/08/12 15:34:24;;;;;;;;;;;;;;;;;;4948832;28;19941;-87
2022/08/12 15:36:49;;;;;;;;;;;;;;;;;;4943325;28;20373;-88
2022/08/12 15:39:15;;;;;;;;;;;;;;;;;;4948480;28;20074;-86
2022/08/12 15:41:45;;;;;;;;;;;;;;;;;;4946973;28;19930;-89
2022/08/12 15:44:13;;;;;;;;;;;;;;;;;;4949660;28;19914;-89
2022/08/12 15:46:49;;;;;;;;;;;;;;;;;;;;;
2022/08/12 15:49:28;;;;;;;;;;;;;;;;;;4944981;28;19920;-88
2022/08/12 15:54:50;;;;;;;;;;;;;;;;;;4942669;28;19943;-88
2022/08/12 15:57:18;;;;;;;;;;;;;;;;;;4949273;28;20014;-88
2022/08/12 15:59:45;;;;;;;;;;;;;;;;;;4949292;28;19929;-86
2022/08/12 16:02:13;;;;;;;;;;;;;;;;;;4945018;28;19965;-85
2022/08/12 16:04:38;;;;;;;;;;;;;;;;;;4948892;28;19914;-87
2022/08/12 16:07:07;;;;;;;;;;;;;;;;;;4944738;28;19926;-86
2022/08/12 16:10:23;;;;;;;;;;;;;;;;;;4941021;28;20000;-86
2022/08/12 16:12:33;;;;;;;;;;;;;;;;;;4944378;28;19921;-87
2022/08/12 16:15:03;;;;;;;;;;;;;;;;;;4956285;28;20020;-88
2022/08/12 16:51:34;;;;;;;;;;;;;;;;;;4938721;28;20079;-86
2022/08/12 16:53:59;;;;;;;;;;;;;;;;;;4941397;28;20347;-85
2022/08/12 16:56:25;;;;;;;;;;;;;;;;;;4949842;28;19920;-85
2022/08/12 16:58:53;;;;;;;;;;;;;;;;;;4943958;28;20374;-85
2022/08/12 17:01:35;;;;;;;;;;;;;;;;;;4946461;28;19914;-87
2022/08/12 17:04:07;;;;;;;;;;;;;;;;;;4950640;28;19921;-84
2022/08/12 17:06:33;;;;;;;;;;;;;;;;;;4945157;28;19930;-83
2022/08/12 17:09:16;;;;;;;;;;;;;;;;;;4951938;28;20294;-85
2022/08/12 17:11:46;;;;;;;;;;;;;;;;;;4948206;28;19951;-86
2022/08/12 17:17:22;;;;;;;;;;;;;;;;;;;;;
2022/08/12 17:19:47;;;;;;;;;;;;;;;;;;4932439;28;19925;-84
2022/08/12 17:22:16;;;;;;;;;;;;;;;;;;4949397;28;19914;-84
2022/08/12 17:24:42;;;;;;;;;;;;;;;;;;4954984;28;21012;-83
2022/08/12 17:27:13;;;;;;;;;;;;;;;;;;4952078;28;20006;-85
2022/08/12 17:33:00;;;;;;;;;;;;;;;;;;;;;
2022/08/12 17:46:43;;;;;;;;;;;;;;;;;;4918888;29;20412;-84
2022/08/12 17:49:31;;;;;;;;;;;;;;;;;;4926607;28;19915;-85
2022/08/12 17:55:01;;;;;;;;;;;;;;;;;;4958201;28;19974;-85
2022/08/12 17:57:53;;;;;;;;;;;;;;;;;;;;;
2022/08/12 18:00:22;;;;;;;;;;;;;;;;;;4937259;28;19926;-86
2022/08/12 18:02:51;;;;;;;;;;;;;;;;;;4939648;28;19921;-86
2022/08/12 18:05:16;;;;;;;;;;;;;;;;;;4938749;28;19914;-84
2022/08/12 18:07:43;;;;;;;;;;;;;;;;;;4940809;28;20452;-85
2022/08/12 18:12:54;;;;;;;;;;;;;;;;;;4906379;29;20445;-85
2022/08/12 18:15:30;;;;;;;;;;;;;;;;;;4905552;29;20018;-83
2022/08/12 18:17:56;;;;;;;;;;;;;;;;;;4907578;29;19923;-84
2022/08/12 18:37:10;;;;;;;;;;;;;;;;;;;;;
2022/08/12 18:42:19;;;;;;;;;;;;;;;;;;4951408;28;19941;-85
2022/08/12 18:47:54;;;;;;;;;;;;;;;;;;;;;
2022/08/12 18:53:17;;;;;;;;;;;;;;;;;;4946722;28;19982;-86
2022/08/12 18:55:45;;;;;;;;;;;;;;;;;;4944444;28;21622;-86
2022/08/12 22:06:16;;;;;;;;;;;;;;;;;;4980139;28;19972;-85
2022/08/12 22:35:30;;;;;;;;;;;;;;;;;;4888125;29;19986;-85
2022/08/12 22:37:56;;;;;;;;;;;;;;;;;;4939126;28;19914;-85
2022/08/12 22:40:21;;;;;;;;;;;;;;;;;;4961146;28;19942;-85
2022/08/12 22:48:14;;;;;;;;;;;;;;;;;;4960844;28;19957;-84
2022/08/12 22:50:39;;;;;;;;;;;;;;;;;;4960569;28;19949;-85
2022/08/12 22:53:14;;;;;;;;;;;;;;;;;;4961703;28;19923;-85
2022/08/12 22:55:40;;;;;;;;;;;;;;;;;;4959825;28;20565;-85
2022/08/12 22:58:05;;;;;;;;;;;;;;;;;;4963283;28;20070;-85
2022/08/12 23:00:31;;;;;;;;;;;;;;;;;;4961642;28;19918;-85
2022/08/12 23:02:56;;;;;;;;;;;;;;;;;;4960661;28;19977;-85
2022/08/12 23:05:21;;;;;;;;;;;;;;;;;;4974792;28;19945;-85
2022/08/12 23:07:46;;;;;;;;;;;;;;;;;;4965120;28;19918;-85
2022/08/12 23:10:11;;;;;;;;;;;;;;;;;;4961851;28;20404;-84
2022/08/12 23:15:20;;;;;;;;;;;;;;;;;;4960823;28;20016;-85
2022/08/12 23:17:45;;;;;;;;;;;;;;;;;;4960629;28;20401;-85
2022/08/12 23:20:11;;;;;;;;;;;;;;;;;;4962983;28;19925;-85
2022/08/12 23:22:36;;;;;;;;;;;;;;;;;;4963907;28;20424;-85
2022/08/12 23:25:02;;;;;;;;;;;;;;;;;;4974023;28;20387;-84
2022/08/12 23:30:11;;;;;;;;;;;;;;;;;;4962930;28;20053;-85
2022/08/12 23:32:36;;;;;;;;;;;;;;;;;;4956683;28;19927;-85
2022/08/12 23:35:01;;;;;;;;;;;;;;;;;;4957186;28;19922;-85
2022/08/12 23:37:26;;;;;;;;;;;;;;;;;;4956518;28;19925;-85
2022/08/12 23:39:51;;;;;;;;;;;;;;;;;;4958406;28;20752;-85
2022/08/12 23:42:17;;;;;;;;;;;;;;;;;;4959640;28;19919;-85